Time;durP1;ratioP1;P1;durP2;ratioP2;P2;SDS_P1;SDS_P2;PMS_P1;PMS_P2;Temp;Humidity;BMP_temperature;BMP_pressure;BME280_temperature;BME280_humidity;BME280_pressure;Samples;Min_cycle;Max_cycle;Signal;HPM_P1;HPM_P2
2023/08/27 00:01:27;;;;;;;8.45;6.40;;;13.80;99.90;;;;;;5074874;28;20365;-66
2023/08/27 00:03:52;;;;;;;9.82;6.40;;;13.80;99.90;;;;;;5058145;28;20481;-68
2023/08/27 00:06:18;;;;;;;8.85;5.93;;;13.80;99.90;;;;;;5073847;28;20419;-66
2023/08/27 00:08:44;;;;;;;8.13;5.88;;;13.80;99.90;;;;;;5074492;28;20047;-66
2023/08/27 00:11:10;;;;;;;9.10;5.15;;;13.80;99.90;;;;;;5074190;28;20040;-66
2023/08/27 00:13:36;;;;;;;10.23;5.30;;;13.80;99.90;;;;;;5073462;28;20096;-66
2023/08/27 00:16:05;;;;;;;10.05;5.82;;;13.80;99.90;;;;;;5074742;28;20105;-66
2023/08/27 00:18:31;;;;;;;7.47;5.00;;;13.80;99.90;;;;;;5091976;28;20111;-66
2023/08/27 00:20:56;;;;;;;7.43;5.47;;;13.70;99.90;;;;;;5074076;28;20607;-66
2023/08/27 00:23:23;;;;;;;8.30;5.43;;;13.80;99.90;;;;;;5074375;28;20123;-66
2023/08/27 00:25:49;;;;;;;7.90;6.25;;;13.70;99.90;;;;;;5092336;28;20083;-66
2023/08/27 00:28:15;;;;;;;9.23;6.18;;;13.70;99.90;;;;;;5073222;28;20090;-67
2023/08/27 00:30:41;;;;;;;9.45;6.47;;;13.70;99.90;;;;;;5074328;28;20036;-66
2023/08/27 00:33:07;;;;;;;9.65;7.68;;;13.70;99.90;;;;;;5074039;28;20036;-66
2023/08/27 00:35:33;;;;;;;9.80;6.47;;;13.70;99.90;;;;;;5073387;28;20054;-66
2023/08/27 00:37:59;;;;;;;7.97;6.35;;;13.70;99.90;;;;;;5074261;28;20044;-67
2023/08/27 00:40:28;;;;;;;9.82;6.35;;;13.70;99.90;;;;;;5074005;28;20071;-66
2023/08/27 00:42:58;;;;;;;7.78;5.70;;;13.70;99.90;;;;;;5091774;28;20035;-67
2023/08/27 00:45:24;;;;;;;8.18;5.68;;;13.70;99.90;;;;;;5092316;28;20040;-68
2023/08/27 00:47:50;;;;;;;8.70;6.57;;;13.70;99.90;;;;;;5073380;28;20396;-68
2023/08/27 00:50:16;;;;;;;8.65;6.50;;;13.70;99.90;;;;;;5074154;28;20547;-68
2023/08/27 00:52:43;;;;;;;9.20;6.60;;;13.60;99.90;;;;;;5074011;28;20093;-67
2023/08/27 00:55:09;;;;;;;8.20;5.60;;;13.60;99.90;;;;;;5072669;28;20048;-68
2023/08/27 00:57:39;;;;;;;7.07;5.45;;;13.70;99.90;;;;;;5091844;28;20048;-67
2023/08/27 01:00:09;;;;;;;9.30;6.65;;;13.60;99.90;;;;;;5074569;28;20044;-68
2023/08/27 01:02:35;;;;;;;9.07;6.45;;;13.60;99.90;;;;;;5091115;28;20459;-68
2023/08/27 01:05:01;;;;;;;8.57;7.03;;;13.50;99.90;;;;;;5074024;28;20062;-67
2023/08/27 01:07:30;;;;;;;11.48;6.93;;;13.60;99.90;;;;;;5073781;28;20036;-67
2023/08/27 01:10:10;;;;;;;8.30;6.80;;;13.60;99.90;;;;;;5073120;28;20036;-67
2023/08/27 01:12:51;;;;;;;9.93;7.32;;;13.60;99.90;;;;;;5073700;28;20044;-67
2023/08/27 01:15:18;;;;;;;9.98;7.45;;;13.60;99.90;;;;;;5073938;28;20040;-67
2023/08/27 01:17:44;;;;;;;8.88;6.85;;;13.50;99.90;;;;;;5073339;28;20040;-67
2023/08/27 01:20:11;;;;;;;12.40;8.13;;;13.60;99.90;;;;;;5073534;28;20537;-67
2023/08/27 01:22:37;;;;;;;8.88;7.63;;;13.60;99.90;;;;;;5054110;28;20128;-68
2023/08/27 01:25:04;;;;;;;11.13;7.93;;;13.60;99.90;;;;;;5091252;28;20111;-68
2023/08/27 01:27:39;;;;;;;10.43;9.05;;;13.60;99.90;;;;;;5073770;28;20048;-68
2023/08/27 01:30:31;;;;;;;11.43;9.10;;;13.60;99.90;;;;;;5075349;28;20114;-67
2023/08/27 01:33:12;;;;;;;9.45;7.53;;;13.60;99.90;;;;;;5096037;28;20032;-66
2023/08/27 01:35:39;;;;;;;11.43;7.85;;;13.60;99.90;;;;;;5095508;28;20040;-66
2023/08/27 01:38:06;;;;;;;11.18;8.43;;;13.60;99.90;;;;;;5076496;28;20044;-66
2023/08/27 01:40:31;;;;;;;10.77;8.05;;;13.60;99.90;;;;;;5095419;28;20076;-66
2023/08/27 01:42:57;;;;;;;11.63;8.70;;;13.60;99.90;;;;;;5095483;28;20544;-66
2023/08/27 01:45:23;;;;;;;11.00;8.32;;;13.60;99.90;;;;;;5076436;28;20052;-66
2023/08/27 01:47:48;;;;;;;9.02;7.50;;;13.60;99.90;;;;;;5077041;28;20485;-66
2023/08/27 01:50:14;;;;;;;10.48;8.07;;;13.60;99.90;;;;;;5077019;28;20032;-66
2023/08/27 01:52:40;;;;;;;11.38;8.98;;;13.60;99.90;;;;;;5093922;28;20125;-66
2023/08/27 01:55:07;;;;;;;9.52;7.55;;;13.60;99.90;;;;;;5059991;28;20048;-66
2023/08/27 01:57:33;;;;;;;9.43;8.07;;;13.60;99.90;;;;;;5077088;28;20040;-66
2023/08/27 01:59:59;;;;;;;11.55;8.20;;;13.60;99.90;;;;;;5094948;28;20039;-66
2023/08/27 02:02:25;;;;;;;9.32;7.60;;;13.60;99.90;;;;;;5077201;28;20044;-66
2023/08/27 02:04:50;;;;;;;10.30;7.65;;;13.70;99.90;;;;;;5060108;28;20047;-66
2023/08/27 02:07:19;;;;;;;9.45;7.78;;;13.80;99.90;;;;;;5076176;28;20090;-66
2023/08/27 02:09:45;;;;;;;9.52;7.82;;;13.70;99.90;;;;;;5076821;28;20040;-67
2023/08/27 02:12:11;;;;;;;11.82;8.70;;;13.70;99.90;;;;;;5075879;28;20040;-67
2023/08/27 02:14:38;;;;;;;11.07;8.60;;;13.70;99.90;;;;;;5094567;28;20040;-66
2023/08/27 02:17:04;;;;;;;10.00;8.63;;;13.70;99.90;;;;;;5076592;28;20036;-66
2023/08/27 02:19:29;;;;;;;10.73;7.88;;;13.70;99.90;;;;;;5075776;28;20043;-66
2023/08/27 02:21:55;;;;;;;8.60;7.70;;;13.70;99.90;;;;;;5076761;28;20040;-66
2023/08/27 02:24:21;;;;;;;10.70;8.02;;;13.70;99.90;;;;;;5076408;28;20055;-66
2023/08/27 02:26:46;;;;;;;14.80;8.45;;;13.70;99.90;;;;;;5075965;28;20397;-66
2023/08/27 02:29:12;;;;;;;11.43;8.57;;;13.70;99.90;;;;;;5076651;28;20032;-66
2023/08/27 02:31:38;;;;;;;10.82;8.73;;;13.70;99.90;;;;;;5076526;28;20435;-66
2023/08/27 02:34:04;;;;;;;11.55;7.70;;;13.70;99.90;;;;;;5075772;28;20036;-66
2023/08/27 02:36:29;;;;;;;10.13;8.50;;;13.70;99.90;;;;;;5076009;28;20042;-66
2023/08/27 02:38:55;;;;;;;11.80;8.15;;;13.70;99.90;;;;;;5094923;28;20402;-66
2023/08/27 02:41:21;;;;;;;9.10;7.20;;;13.70;99.90;;;;;;5092492;28;20185;-66
2023/08/27 02:43:46;;;;;;;11.15;7.05;;;13.60;99.90;;;;;;5076154;28;20036;-66
2023/08/27 02:46:12;;;;;;;9.13;7.15;;;13.60;99.90;;;;;;5094543;28;20115;-66
2023/08/27 02:48:38;;;;;;;9.00;7.85;;;13.60;99.90;;;;;;5058391;28;20397;-66
2023/08/27 02:51:03;;;;;;;10.60;8.77;;;13.60;99.90;;;;;;5076376;28;20111;-66
2023/08/27 02:53:29;;;;;;;9.50;8.00;;;13.60;99.90;;;;;;5075289;28;20048;-66
2023/08/27 02:55:55;;;;;;;10.90;8.55;;;13.60;99.90;;;;;;5075271;28;20040;-66
2023/08/27 02:58:21;;;;;;;9.50;8.50;;;13.50;99.90;;;;;;5076069;28;20040;-66
2023/08/27 03:00:47;;;;;;;9.45;7.93;;;13.50;99.90;;;;;;5094202;28;20047;-66
2023/08/27 03:03:13;;;;;;;11.85;8.93;;;13.50;99.90;;;;;;5074772;28;20044;-66
2023/08/27 03:05:40;;;;;;;10.30;7.85;;;13.50;99.90;;;;;;5075570;28;20035;-66
2023/08/27 03:08:05;;;;;;;10.23;8.25;;;13.50;99.90;;;;;;5093591;28;20044;-66
2023/08/27 03:10:31;;;;;;;11.10;8.18;;;13.50;99.90;;;;;;5075168;28;20028;-66
2023/08/27 03:12:57;;;;;;;9.73;8.10;;;13.40;99.90;;;;;;5075711;28;20540;-66
2023/08/27 03:15:23;;;;;;;11.40;8.90;;;13.40;99.90;;;;;;5075133;28;20047;-66
2023/08/27 03:17:48;;;;;;;11.93;9.10;;;13.40;99.90;;;;;;5093530;28;20508;-66
2023/08/27 03:20:14;;;;;;;12.73;9.20;;;13.40;99.90;;;;;;5075425;28;20043;-66
2023/08/27 03:22:40;;;;;;;10.48;8.18;;;13.50;99.90;;;;;;5074688;28;20496;-66
2023/08/27 03:25:06;;;;;;;9.32;7.63;;;13.40;99.90;;;;;;5075631;28;20036;-66
2023/08/27 03:27:35;;;;;;;10.90;8.75;;;13.50;99.90;;;;;;5075447;28;20366;-66
2023/08/27 03:30:02;;;;;;;11.93;7.93;;;13.50;99.90;;;;;;5092992;28;20492;-66
2023/08/27 03:32:28;;;;;;;16.25;8.60;;;13.50;99.90;;;;;;5074986;28;20541;-66
2023/08/27 03:34:54;;;;;;;12.65;8.25;;;13.50;99.90;;;;;;5093414;28;20031;-66
2023/08/27 03:37:20;;;;;;;11.77;9.65;;;13.50;99.90;;;;;;5074316;28;20040;-66
2023/08/27 03:39:46;;;;;;;11.10;8.88;;;13.60;99.90;;;;;;5092767;28;20042;-66
2023/08/27 03:42:11;;;;;;;10.57;8.30;;;13.50;99.90;;;;;;5075094;28;20047;-66
2023/08/27 03:44:37;;;;;;;11.00;9.85;;;13.60;99.90;;;;;;5092167;28;20036;-66
2023/08/27 03:47:04;;;;;;;12.55;9.68;;;13.60;99.90;;;;;;5075433;28;20058;-66
2023/08/27 03:49:30;;;;;;;13.38;9.10;;;13.60;99.90;;;;;;5074176;28;20050;-67
2023/08/27 03:51:56;;;;;;;10.73;8.60;;;13.60;99.90;;;;;;5074417;28;20504;-66
2023/08/27 03:54:21;;;;;;;12.98;9.82;;;13.60;99.90;;;;;;5091732;28;20109;-66
2023/08/27 03:56:47;;;;;;;10.65;9.05;;;13.60;99.90;;;;;;5074897;28;20105;-66
2023/08/27 03:59:13;;;;;;;11.32;9.63;;;13.70;99.90;;;;;;5073856;28;20506;-67
2023/08/27 04:01:38;;;;;;;11.02;9.27;;;13.70;99.90;;;;;;5092648;28;20048;-66
2023/08/27 04:04:04;;;;;;;13.73;9.70;;;13.70;99.90;;;;;;5074697;28;20046;-66
2023/08/27 04:06:30;;;;;;;12.88;9.57;;;13.70;99.90;;;;;;5073760;28;20370;-66
2023/08/27 04:08:56;;;;;;;13.10;9.60;;;13.70;99.90;;;;;;5092725;28;20485;-66
2023/08/27 04:11:23;;;;;;;12.27;8.90;;;13.80;99.90;;;;;;5092899;28;20036;-66
2023/08/27 04:13:49;;;;;;;11.52;10.13;;;13.70;99.90;;;;;;5073633;28;20043;-66
2023/08/27 04:16:15;;;;;;;11.85;10.15;;;13.70;99.90;;;;;;5057688;28;20040;-66
2023/08/27 04:18:41;;;;;;;12.65;10.52;;;13.80;99.90;;;;;;5073228;28;20393;-66
2023/08/27 04:21:07;;;;;;;15.98;10.77;;;13.70;99.90;;;;;;5074731;28;20078;-66
2023/08/27 04:23:35;;;;;;;11.07;9.95;;;13.80;99.90;;;;;;5074247;28;20516;-66
2023/08/27 04:26:03;;;;;;;11.93;10.73;;;13.70;99.90;;;;;;5092129;28;20092;-66
2023/08/27 04:28:31;;;;;;;13.73;11.07;;;13.70;99.90;;;;;;5091976;28;20036;-66
2023/08/27 04:30:57;;;;;;;13.75;10.10;;;13.70;99.90;;;;;;5057829;28;20039;-67
2023/08/27 04:33:23;;;;;;;13.82;12.55;;;13.70;99.90;;;;;;5073361;28;20032;-67
2023/08/27 04:35:52;;;;;;;14.82;13.43;;;13.70;99.90;;;;;;5074010;28;20111;-66
2023/08/27 04:38:19;;;;;;;15.93;14.63;;;13.70;99.90;;;;;;5073767;28;20050;-66
2023/08/27 04:40:54;;;;;;;17.35;15.90;;;13.70;99.90;;;;;;5091707;28;20047;-66
2023/08/27 04:43:20;;;;;;;14.05;11.65;;;13.70;99.90;;;;;;5074158;28;20131;-66
2023/08/27 04:45:46;;;;;;;14.77;13.07;;;13.70;99.90;;;;;;5092086;28;20115;-67
2023/08/27 04:48:11;;;;;;;14.77;13.38;;;13.70;99.90;;;;;;5072899;28;20040;-66
2023/08/27 04:50:38;;;;;;;14.65;13.23;;;13.70;99.90;;;;;;5092001;28;20036;-66
2023/08/27 04:53:04;;;;;;;17.38;15.88;;;13.70;99.90;;;;;;5092349;28;20032;-67
2023/08/27 04:55:30;;;;;;;16.95;15.43;;;13.80;99.90;;;;;;5056196;28;20404;-66
2023/08/27 04:57:55;;;;;;;18.02;16.52;;;13.80;99.90;;;;;;5074171;28;20039;-66
2023/08/27 05:00:21;;;;;;;17.02;15.48;;;13.90;99.90;;;;;;5073950;28;20047;-66
2023/08/27 05:02:48;;;;;;;13.43;10.00;;;13.90;99.90;;;;;;5072645;28;20072;-67
2023/08/27 05:05:14;;;;;;;11.27;8.80;;;13.90;99.90;;;;;;5094401;28;20044;-66
2023/08/27 05:07:39;;;;;;;10.60;8.82;;;14.00;99.90;;;;;;5077980;28;20048;-66
2023/08/27 05:10:06;;;;;;;11.75;9.05;;;14.00;99.90;;;;;;5077615;28;20036;-66
2023/08/27 05:12:31;;;;;;;12.02;9.80;;;14.00;99.90;;;;;;5096160;28;20067;-66
2023/08/27 05:14:57;;;;;;;10.95;8.85;;;14.10;99.90;;;;;;5095632;28;20064;-66
2023/08/27 05:17:23;;;;;;;10.82;8.68;;;14.10;99.90;;;;;;5078099;28;20465;-66
2023/08/27 05:19:49;;;;;;;11.18;8.77;;;14.10;99.90;;;;;;5077530;28;20047;-66
2023/08/27 05:22:15;;;;;;;15.82;9.93;;;14.20;99.90;;;;;;5095290;28;20122;-66
2023/08/27 05:24:41;;;;;;;12.38;9.10;;;14.20;99.90;;;;;;5095986;28;20039;-67
2023/08/27 05:27:06;;;;;;;9.75;7.50;;;14.30;99.90;;;;;;5095604;28;20476;-66
2023/08/27 05:29:33;;;;;;;10.23;8.60;;;14.20;99.90;;;;;;5076389;28;20036;-66
2023/08/27 05:31:58;;;;;;;9.68;7.75;;;14.30;99.90;;;;;;5095938;28;20097;-67
2023/08/27 05:34:24;;;;;;;11.48;8.55;;;14.40;99.90;;;;;;5060300;28;20501;-67
2023/08/27 05:36:50;;;;;;;9.52;8.43;;;14.40;99.90;;;;;;5094632;28;20043;-66
2023/08/27 05:39:15;;;;;;;9.23;7.60;;;14.40;99.90;;;;;;5077454;28;20085;-67
2023/08/27 05:41:41;;;;;;;10.73;8.13;;;14.50;99.90;;;;;;5077483;28;20040;-67
2023/08/27 05:44:07;;;;;;;8.75;7.78;;;14.50;99.90;;;;;;5076355;28;20047;-67
2023/08/27 05:46:32;;;;;;;9.80;8.57;;;14.50;99.90;;;;;;5095445;28;20081;-66
2023/08/27 05:49:00;;;;;;;9.57;8.25;;;14.50;99.90;;;;;;5095239;28;20040;-66
2023/08/27 05:51:25;;;;;;;10.02;8.70;;;14.50;99.90;;;;;;5076494;28;20097;-66
2023/08/27 05:53:51;;;;;;;9.95;8.27;;;14.50;99.90;;;;;;5073370;28;20084;-66
2023/08/27 05:56:17;;;;;;;8.98;7.38;;;14.50;99.90;;;;;;5073176;28;20051;-66
2023/08/27 05:58:42;;;;;;;14.15;10.02;;;14.60;99.90;;;;;;5074458;28;20114;-68
2023/08/27 06:01:08;;;;;;;9.90;8.32;;;14.60;99.90;;;;;;5074869;28;20059;-66
2023/08/27 06:03:34;;;;;;;10.52;7.95;;;14.60;99.90;;;;;;5073255;28;20408;-66
2023/08/27 06:06:00;;;;;;;10.68;8.65;;;14.70;99.90;;;;;;5073236;28;20048;-66
2023/08/27 06:08:26;;;;;;;11.93;9.68;;;14.70;99.90;;;;;;5072580;28;20045;-66
2023/08/27 06:10:51;;;;;;;9.73;8.73;;;14.70;99.90;;;;;;5072309;28;20021;-66
2023/08/27 06:13:18;;;;;;;10.05;9.05;;;14.70;99.90;;;;;;5072414;28;20033;-66
2023/08/27 06:15:44;;;;;;;9.50;8.35;;;14.80;99.90;;;;;;5072073;28;20086;-66
2023/08/27 06:18:10;;;;;;;12.80;9.20;;;14.80;99.90;;;;;;5073872;28;20040;-66
2023/08/27 06:20:35;;;;;;;11.02;9.18;;;14.80;99.90;;;;;;5072956;28;20047;-66
2023/08/27 06:23:07;;;;;;;11.48;9.52;;;14.80;99.90;;;;;;5074744;28;20431;-66
2023/08/27 06:25:33;;;;;;;9.65;7.90;;;14.90;99.90;;;;;;5073733;28;20505;-66
2023/08/27 06:28:01;;;;;;;10.05;8.77;;;14.90;99.90;;;;;;5072868;28;20040;-66
2023/08/27 06:30:27;;;;;;;10.02;9.02;;;14.90;99.90;;;;;;5056296;28;20044;-66
2023/08/27 06:32:53;;;;;;;10.65;9.38;;;14.90;99.90;;;;;;5073897;28;20089;-66
2023/08/27 06:35:19;;;;;;;10.65;9.55;;;15.00;99.90;;;;;;5056177;28;20036;-68
2023/08/27 06:37:45;;;;;;;11.80;9.27;;;15.00;99.90;;;;;;5073130;28;20028;-68
2023/08/27 06:40:13;;;;;;;11.70;10.60;;;15.00;99.90;;;;;;5071132;28;20477;-69
2023/08/27 06:42:38;;;;;;;12.30;10.18;;;15.10;99.90;;;;;;5067220;28;20051;-68
2023/08/27 06:45:06;;;;;;;11.52;9.77;;;15.10;99.90;;;;;;5063059;28;20033;-69
2023/08/27 06:47:32;;;;;;;11.73;10.57;;;15.10;99.90;;;;;;5061510;28;20500;-67
2023/08/27 06:49:57;;;;;;;14.25;12.73;;;15.10;99.90;;;;;;5061925;28;20112;-67
2023/08/27 06:52:23;;;;;;;16.75;15.35;;;15.10;99.90;;;;;;5051069;28;20130;-67
2023/08/27 06:54:49;;;;;;;14.68;13.43;;;15.20;99.90;;;;;;5060724;28;20496;-67
2023/08/27 06:57:15;;;;;;;15.23;13.88;;;15.20;99.90;;;;;;5071037;28;20102;-68
2023/08/27 06:59:41;;;;;;;16.25;14.55;;;15.20;99.90;;;;;;5069934;28;20519;-69
2023/08/27 07:02:06;;;;;;;16.73;15.38;;;15.30;99.90;;;;;;5069170;28;20068;-69
2023/08/27 07:04:32;;;;;;;17.13;15.57;;;15.40;99.90;;;;;;5070061;28;20485;-69
2023/08/27 07:06:58;;;;;;;15.82;14.43;;;15.40;99.90;;;;;;5069804;28;20048;-69
2023/08/27 07:09:25;;;;;;;11.18;8.48;;;15.40;99.90;;;;;;5068664;28;20099;-69
2023/08/27 07:11:51;;;;;;;11.30;9.43;;;15.50;99.90;;;;;;5069388;28;20052;-69
2023/08/27 07:14:17;;;;;;;12.02;9.48;;;15.50;99.90;;;;;;5052538;28;20043;-69
2023/08/27 07:16:43;;;;;;;11.50;8.23;;;15.60;99.90;;;;;;5069308;28;20044;-69
2023/08/27 07:19:09;;;;;;;11.93;9.55;;;15.50;99.90;;;;;;5070221;28;20116;-69
2023/08/27 07:21:34;;;;;;;12.45;11.23;;;15.60;99.90;;;;;;5064792;28;20063;-69
2023/08/27 07:24:00;;;;;;;11.52;10.00;;;15.60;99.90;;;;;;5050070;28;20131;-69
2023/08/27 07:26:26;;;;;;;13.55;11.45;;;15.60;99.90;;;;;;5032319;28;20045;-67
2023/08/27 07:28:51;;;;;;;11.80;10.43;;;15.70;99.90;;;;;;5064710;28;20074;-67
2023/08/27 07:31:17;;;;;;;11.05;9.77;;;15.80;99.90;;;;;;5068885;28;20047;-67
2023/08/27 07:33:43;;;;;;;11.60;10.27;;;15.80;99.90;;;;;;5069463;28;20047;-67
2023/08/27 07:36:09;;;;;;;11.93;10.32;;;15.90;99.90;;;;;;5069587;28;20055;-67
2023/08/27 07:38:40;;;;;;;12.13;10.70;;;15.90;99.90;;;;;;5068871;28;20041;-67
2023/08/27 07:41:06;;;;;;;10.70;8.57;;;15.90;99.90;;;;;;5069032;28;20409;-67
2023/08/27 07:43:32;;;;;;;13.30;10.13;;;16.10;99.90;;;;;;5049382;28;20045;-66
2023/08/27 07:45:57;;;;;;;10.50;9.13;;;16.10;99.90;;;;;;5047784;28;20040;-67
2023/08/27 07:48:23;;;;;;;9.80;8.73;;;16.30;99.90;;;;;;5054609;28;20036;-67
2023/08/27 07:50:49;;;;;;;8.73;7.03;;;16.30;99.90;;;;;;5066347;28;20037;-67
2023/08/27 07:53:15;;;;;;;9.00;7.07;;;16.40;99.90;;;;;;5067730;28;20125;-68
2023/08/27 07:55:41;;;;;;;10.40;7.50;;;16.50;99.90;;;;;;5070417;28;20113;-67
2023/08/27 07:58:07;;;;;;;9.35;6.80;;;16.70;99.90;;;;;;5069659;28;20063;-67
2023/08/27 08:00:33;;;;;;;7.97;7.15;;;16.80;99.90;;;;;;5071480;28;20047;-67
2023/08/27 08:02:59;;;;;;;10.07;7.07;;;16.90;99.90;;;;;;5070884;28;20039;-68
2023/08/27 08:05:25;;;;;;;7.60;6.90;;;17.00;99.90;;;;;;5087172;28;20468;-65
2023/08/27 08:07:50;;;;;;;7.97;5.28;;;17.10;99.90;;;;;;5054443;28;20036;-66
2023/08/27 08:10:16;;;;;;;5.82;3.63;;;17.20;99.90;;;;;;5078995;28;20424;-66
2023/08/27 08:12:43;;;;;;;6.97;4.15;;;17.20;99.90;;;;;;5069013;28;20036;-66
2023/08/27 08:15:09;;;;;;;7.28;4.82;;;17.20;99.90;;;;;;5051532;28;20044;-67
2023/08/27 08:17:35;;;;;;;8.80;6.30;;;17.30;99.90;;;;;;5036919;28;20068;-66
2023/08/27 08:20:02;;;;;;;7.65;5.22;;;17.30;99.90;;;;;;5069448;28;20079;-66
2023/08/27 08:22:28;;;;;;;7.00;3.95;;;17.30;99.90;;;;;;5061290;28;20046;-66
2023/08/27 08:24:55;;;;;;;5.72;3.40;;;17.50;99.90;;;;;;5071094;28;20043;-66
2023/08/27 08:28:04;;;;;;;8.23;2.70;;;17.50;99.90;;;;;;5088088;28;20110;-67
2023/08/27 08:30:30;;;;;;;5.45;2.80;;;17.60;99.90;;;;;;5063374;28;20060;-68
2023/08/27 08:32:56;;;;;;;6.55;2.90;;;17.60;99.90;;;;;;5053677;28;20119;-66
2023/08/27 08:35:21;;;;;;;8.10;3.15;;;17.60;99.90;;;;;;5043156;28;20044;-66
2023/08/27 08:37:47;;;;;;;6.88;3.05;;;17.60;99.90;;;;;;5070577;28;20159;-66
2023/08/27 08:40:14;;;;;;;4.72;2.70;;;17.50;99.90;;;;;;5048468;28;20501;-66
2023/08/27 08:42:55;;;;;;;4.55;2.60;;;17.50;99.90;;;;;;5081576;28;20055;-65
2023/08/27 08:45:59;;;;;;;5.55;2.20;;;17.60;99.90;;;;;;5069533;28;20416;-66
2023/08/27 08:48:28;;;;;;;5.60;2.70;;;17.60;99.90;;;;;;5010311;28;20052;-66
2023/08/27 08:50:54;;;;;;;6.75;3.45;;;17.70;99.90;;;;;;5042710;28;20044;-65
2023/08/27 08:53:24;;;;;;;4.55;2.72;;;17.80;99.90;;;;;;5060242;28;20093;-66
2023/08/27 08:55:57;;;;;;;5.25;2.65;;;18.00;99.90;;;;;;5063487;28;20048;-66
2023/08/27 08:58:30;;;;;;;4.90;2.88;;;18.10;99.90;;;;;;5065469;28;20123;-67
2023/08/27 09:00:56;;;;;;;5.95;2.47;;;18.30;99.90;;;;;;5065809;28;20040;-66
2023/08/27 09:03:23;;;;;;;4.50;2.40;;;18.40;99.90;;;;;;5083202;28;20412;-66
2023/08/27 09:05:51;;;;;;;4.40;1.90;;;18.50;99.90;;;;;;5088452;28;20048;-65
2023/08/27 09:08:19;;;;;;;4.00;1.92;;;18.50;99.90;;;;;;5042866;28;20136;-66
2023/08/27 09:10:47;;;;;;;5.05;1.83;;;18.40;99.90;;;;;;5050976;28;20044;-68
2023/08/27 09:13:20;;;;;;;4.60;2.40;;;18.40;99.90;;;;;;5051765;28;20468;-67
2023/08/27 09:15:46;;;;;;;4.60;2.25;;;18.40;99.90;;;;;;5070047;28;20040;-67
2023/08/27 09:18:12;;;;;;;4.07;1.92;;;18.30;99.90;;;;;;5070839;28;20043;-67
2023/08/27 09:20:38;;;;;;;3.58;1.77;;;18.10;99.90;;;;;;5071790;28;20123;-67
2023/08/27 09:23:04;;;;;;;4.90;2.47;;;18.00;99.90;;;;;;5085974;28;20162;-67
2023/08/27 09:25:30;;;;;;;6.78;2.17;;;18.00;99.90;;;;;;5069833;28;20050;-67
2023/08/27 09:27:55;;;;;;;6.32;2.10;;;18.00;99.90;;;;;;5070506;28;20044;-69
2023/08/27 09:30:22;;;;;;;4.80;1.88;;;18.20;99.90;;;;;;5083972;28;20071;-67
2023/08/27 09:32:48;;;;;;;3.65;1.30;;;18.30;99.90;;;;;;5066187;28;20040;-67
2023/08/27 09:35:13;;;;;;;3.92;1.48;;;18.20;99.90;;;;;;5067694;28;20040;-67
2023/08/27 09:37:41;;;;;;;2.55;1.10;;;18.20;99.90;;;;;;5070372;28;20401;-67
2023/08/27 09:40:08;;;;;;;2.33;1.10;;;18.20;99.90;;;;;;5052933;28;20071;-65
2023/08/27 09:42:33;;;;;;;2.65;0.90;;;18.20;99.90;;;;;;5068820;28;20115;-68
2023/08/27 09:44:59;;;;;;;2.20;0.90;;;18.20;99.90;;;;;;5038717;28;20127;-67
2023/08/27 09:47:43;;;;;;;1.58;0.70;;;18.30;99.90;;;;;;5067319;28;20563;-67
2023/08/27 09:50:17;;;;;;;2.22;0.85;;;18.20;99.90;;;;;;5087940;28;20048;-67
2023/08/27 09:52:43;;;;;;;2.50;1.00;;;18.10;99.90;;;;;;5057797;28;20040;-67
2023/08/27 09:55:18;;;;;;;2.38;0.80;;;18.00;99.90;;;;;;5074424;28;20120;-67
2023/08/27 09:57:50;;;;;;;3.45;1.00;;;17.90;99.90;;;;;;5057211;28;20076;-69
2023/08/27 10:00:22;;;;;;;4.05;1.17;;;17.80;99.90;;;;;;5057861;28;20624;-68
2023/08/27 10:02:51;;;;;;;1.92;0.80;;;17.70;99.90;;;;;;5073019;28;20544;-67
2023/08/27 10:05:16;;;;;;;3.38;0.85;;;17.60;99.90;;;;;;5073433;28;20097;-67
2023/08/27 10:07:53;;;;;;;2.53;0.95;;;17.50;99.90;;;;;;5058047;28;20040;-67
2023/08/27 10:10:20;;;;;;;2.90;1.10;;;17.40;99.90;;;;;;5082307;28;20156;-67
2023/08/27 10:12:48;;;;;;;3.50;1.23;;;17.40;99.90;;;;;;5091852;28;20042;-69
2023/08/27 10:15:16;;;;;;;3.10;0.95;;;17.40;99.90;;;;;;5065925;28;20040;-69
2023/08/27 10:17:43;;;;;;;3.08;1.25;;;17.40;99.90;;;;;;5056922;28;20048;-67
2023/08/27 10:20:11;;;;;;;3.63;0.93;;;17.30;99.90;;;;;;5069965;28;20048;-65
2023/08/27 10:22:37;;;;;;;4.72;1.40;;;17.20;99.90;;;;;;5073455;28;20044;-66
2023/08/27 10:25:06;;;;;;;5.32;2.05;;;17.20;99.90;;;;;;5073093;28;20040;-66
2023/08/27 10:27:32;;;;;;;13.20;2.67;;;17.00;99.90;;;;;;5073635;28;20384;-68
2023/08/27 10:29:59;;;;;;;5.45;2.20;;;16.80;99.90;;;;;;5073435;28;20043;-66
2023/08/27 10:32:24;;;;;;;7.30;2.17;;;16.70;99.90;;;;;;5090616;28;20555;-65
2023/08/27 10:34:50;;;;;;;5.00;1.77;;;16.50;99.90;;;;;;5056838;28;20040;-67
2023/08/27 10:37:19;;;;;;;6.47;3.35;;;16.30;99.90;;;;;;5056443;28;20481;-67
2023/08/27 10:39:47;;;;;;;6.47;2.92;;;16.20;99.90;;;;;;5074346;28;20119;-66
2023/08/27 10:42:33;;;;;;;4.82;2.60;;;16.10;99.90;;;;;;5072037;28;20393;-66
2023/08/27 10:45:17;;;;;;;5.38;2.30;;;16.00;99.90;;;;;;5072404;28;20740;-67
2023/08/27 10:48:10;;;;;;;10.47;3.60;;;16.00;99.90;;;;;;5053101;28;20079;-66
2023/08/27 10:50:48;;;;;;;9.05;3.40;;;16.00;99.90;;;;;;5053365;28;20049;-66
2023/08/27 10:53:15;;;;;;;7.75;3.63;;;16.10;99.90;;;;;;5062454;28;20769;-66
2023/08/27 10:55:45;;;;;;;8.15;4.40;;;16.10;99.90;;;;;;5091286;28;20056;-66
2023/08/27 10:58:25;;;;;;;7.53;4.95;;;16.20;99.90;;;;;;5089160;28;20113;-67
2023/08/27 11:01:07;;;;;;;5.50;4.47;;;16.20;99.90;;;;;;5052841;28;20041;-67
2023/08/27 11:04:08;;;;;;;5.03;3.47;;;16.20;99.90;;;;;;5068291;28;20044;-66
2023/08/27 11:06:46;;;;;;;5.75;2.70;;;16.10;99.90;;;;;;5044204;28;20056;-67
2023/08/27 11:09:14;;;;;;;6.50;2.42;;;16.00;99.90;;;;;;5064427;28;20134;-66
2023/08/27 11:11:41;;;;;;;6.55;2.38;;;15.90;99.90;;;;;;5064079;28;20036;-66
2023/08/27 11:14:10;;;;;;;5.07;2.92;;;15.80;99.90;;;;;;5079635;28;20066;-67
2023/08/27 11:17:06;;;;;;;7.45;2.25;;;15.70;99.90;;;;;;5043155;28;20041;-67
2023/08/27 11:19:38;;;;;;;8.68;2.08;;;15.60;99.90;;;;;;5057523;28;20049;-66
2023/08/27 11:22:13;;;;;;;6.82;1.90;;;15.40;99.90;;;;;;5054957;28;20485;-66
2023/08/27 11:24:52;;;;;;;6.00;2.20;;;15.30;99.90;;;;;;5072530;28;20128;-72
2023/08/27 11:27:20;;;;;;;6.63;1.80;;;15.10;99.90;;;;;;5072543;28;20079;-69
2023/08/27 11:29:51;;;;;;;4.22;1.42;;;14.90;99.90;;;;;;5057654;28;20048;-64
2023/08/27 11:32:19;;;;;;;6.45;2.03;;;14.70;99.90;;;;;;5049757;28;20039;-63
2023/08/27 11:34:45;;;;;;;6.32;1.15;;;14.40;99.90;;;;;;5057846;28;20047;-64
2023/08/27 11:37:12;;;;;;;4.90;1.20;;;14.30;99.90;;;;;;5057582;28;20107;-65
2023/08/27 11:39:39;;;;;;;6.07;0.90;;;14.20;99.90;;;;;;5088063;28;20849;-73
2023/08/27 11:42:13;;;;;;;3.60;1.20;;;14.20;99.90;;;;;;5058282;28;20044;-73
2023/08/27 11:44:54;;;;;;;5.25;1.23;;;14.20;99.90;;;;;;5083888;28;20562;-70
2023/08/27 11:47:21;;;;;;;2.72;1.10;;;14.10;99.90;;;;;;5071256;28;20040;-68
2023/08/27 11:49:48;;;;;;;4.38;1.42;;;14.20;99.90;;;;;;5071495;28;20036;-67
2023/08/27 11:52:14;;;;;;;3.05;1.33;;;14.30;99.90;;;;;;5065226;28;20036;-67
2023/08/27 11:54:46;;;;;;;3.67;1.23;;;14.40;99.90;;;;;;5051867;28;20057;-68
2023/08/27 11:57:14;;;;;;;4.75;1.35;;;14.40;99.90;;;;;;5035259;28;20075;-67
2023/08/27 11:59:39;;;;;;;3.65;1.42;;;14.50;99.90;;;;;;5051944;28;20048;-67
2023/08/27 12:02:07;;;;;;;4.85;1.65;;;14.50;99.90;;;;;;5059721;28;20047;-67
2023/08/27 12:04:33;;;;;;;6.70;1.35;;;14.50;99.90;;;;;;5054410;28;20039;-67
2023/08/27 12:07:05;;;;;;;4.88;1.83;;;14.60;99.90;;;;;;5072584;28;20082;-68
2023/08/27 12:09:34;;;;;;;4.20;1.50;;;14.70;99.90;;;;;;5081486;28;20044;-67
2023/08/27 12:12:04;;;;;;;3.78;1.38;;;14.70;99.90;;;;;;5071797;28;20419;-68
2023/08/27 12:14:31;;;;;;;8.13;1.70;;;14.90;99.90;;;;;;5087579;28;20046;-67
2023/08/27 12:17:07;;;;;;;3.20;1.70;;;15.10;99.90;;;;;;5070951;28;20043;-64
2023/08/27 12:19:33;;;;;;;3.65;1.20;;;15.30;99.90;;;;;;5055422;28;20044;-65
2023/08/27 12:22:00;;;;;;;3.05;1.30;;;15.50;99.90;;;;;;5072778;28;20047;-64
2023/08/27 12:24:44;;;;;;;2.90;1.40;;;15.60;99.90;;;;;;5089760;28;20106;-68
2023/08/27 12:27:16;;;;;;;6.43;1.95;;;15.70;99.90;;;;;;5052177;28;20546;-68
2023/08/27 12:29:46;;;;;;;4.05;1.80;;;15.90;99.90;;;;;;5071434;28;20411;-65
2023/08/27 12:32:17;;;;;;;6.80;1.83;;;16.00;99.90;;;;;;5069490;28;20507;-66
2023/08/27 12:34:47;;;;;;;6.38;1.98;;;16.10;99.90;;;;;;5066236;28;20399;-65
2023/08/27 12:37:17;;;;;;;2.97;1.58;;;16.20;99.90;;;;;;5077231;28;20047;-67
2023/08/27 12:39:44;;;;;;;2.47;1.40;;;16.40;99.90;;;;;;5067979;28;20048;-66
2023/08/27 12:42:11;;;;;;;2.78;1.63;;;16.60;99.90;;;;;;5068873;28;20112;-66
2023/08/27 12:44:38;;;;;;;5.20;1.90;;;16.70;99.90;;;;;;5077515;28;20523;-66